Lena, IL

10:55 PM CDT on July 07, 2015 (GMT -0500)
South of Lena | | Change Station
CLOSE
Current Station
Personal Weather Station
Location: Lena, IL
Elevation: 919 ft
Nearby Weather Stations

Elev 919 ft 42.34 °N, 89.81 °W | Updated 1 minute ago

Clear
Clear
56.7 °F
Feels Like 56.7 °F
N
0.0
Wind Variable Wind from NNE
Gusts 0.0 mph

Today
High -- | Low -- °F
--% Chance of Precip.
Yesterday
High -- | Low -- °F
Precip. -- in
5:29 AM 8:38 PM
Waning Gibbous, 58% visible
Pressure 30.13 in
Visibility 10.0 miles
Clouds Clear
Dew Point 53 °F
Humidity 88%
Rainfall 0.00 in
Snow Depth Not available.
UV 0 out of 12
Pollen .60 out of 12
Air Quality Not available.
Flu Activity Not available.
METAR KFEP 080335Z AUTO 00000KT 10SM CLR 13/11 A3013 RMK AO2 T01290110

More Conditions Fewer Conditions

Pressure 30.13 in
Visibility 10.0 miles
Clouds Clear
Dew Point 53 °F
Humidity 88%
Rainfall 0.00 in
Snow Depth Not available.
UV 0 out of 12
Pollen .60 out of 12
Air Quality Not available.
Flu Activity Not available.
METAR KFEP 080335Z AUTO 00000KT 10SM CLR 13/11 A3013 RMK AO2 T01290110

More Conditions Fewer Conditions

10-Day Weather Forecast

×

Almanac

Astronomy

Jul. 07, 2015 Rise Set
Actual Time
Civil Twilight
Nautical Twilight
Astronomical Twilight
Moon
Length of Visible Light
Length of Day
Tomorrow will be .
, % of the Moon is Illuminated

Today's Extremes

State Highs State Lows

Community

WunderPhotos

Upload Photos

1,836,037 photos uploaded!

WunderBlogs® & News

Nearby

Air Quality

  Air Quality AQ Index Pollutant
Not available.

Snow Depth

Station Depth Elevation

Earthquake Activity

City Distance Mag. Time & Date
Minimum magnitude displayed is 2.5.

Coastal Water Temperatures

Place Temperature

Stations

Nearby Weather Stations

Station Location Temp. Windchill Dew Point Humidity Wind Precip. Elev Updated Type